METAR 2014/09/23 :

EPMO 2:00: METAR EPMO 230200Z 25012KT 8000 BKN006 08/08 Q1005= EPMO 1:30: METAR EPMO 230130Z NIL=

TAF 2014/09/22 :

EPMO 23:40: TAF AMD EPMO 222340Z 2221/2306 CNL= EPMO 23:00: TAF EPMO 222300Z NIL=

Pogoda ogólna dla Polski